Camanche Lake, California
Current Conditions -  °F | °C
As of 10:45 AM on Friday 31 Oct 2014 (Local Time) from KMHR Reporting Station
Broken Clouds Broken Clouds  
Wind Chill: 64°   Ceiling: 800
Heat Index: 64°   Visibility: 10mi
Dew Point: 55°   Wind: 8mph
Humidity: 73%   Direction: 230°SW
Pressure: 29.88"   Gusts: NA
Location:  38.3354°N, 120.942°W
Report Text: KMHR 311745Z 23007KT 10SM FEW050 BKN0080 18/13 A2988
Loading
Personal Weather Stations






























Interactive Weather Map
Tropical Storm Tracking
New forecast layout! Learn more

10-Day Weather Forecast

Advertisements
Track Severe Weather on mobile